sensor_id;sensor_type;location;lat;lon;timestamp;pressure;altitude;pressure_sealevel;temperature;humidity
49072;BME280;52656;52.610;10.236;2023-04-08T00:02:14;101814.97;;;5.36;80.79
49072;BME280;52656;52.610;10.236;2023-04-08T00:04:40;101813.19;;;5.45;80.67
49072;BME280;52656;52.610;10.236;2023-04-08T00:07:05;101813.16;;;5.49;80.75
49072;BME280;52656;52.610;10.236;2023-04-08T00:09:31;101821.03;;;5.61;79.57
49072;BME280;52656;52.610;10.236;2023-04-08T00:11:57;101822.84;;;5.38;81.42
49072;BME280;52656;52.610;10.236;2023-04-08T00:14:22;101815.81;;;5.51;80.65
49072;BME280;52656;52.610;10.236;2023-04-08T00:16:47;101817.53;;;5.61;80.08
49072;BME280;52656;52.610;10.236;2023-04-08T00:19:13;101814.91;;;5.66;79.49
49072;BME280;52656;52.610;10.236;2023-04-08T00:21:38;101827.22;;;5.36;81.63
49072;BME280;52656;52.610;10.236;2023-04-08T00:24:04;101813.19;;;5.45;81.19
49072;BME280;52656;52.610;10.236;2023-04-08T00:26:29;101818.44;;;5.35;81.99
49072;BME280;52656;52.610;10.236;2023-04-08T00:28:55;101812.31;;;5.50;80.67
49072;BME280;52656;52.610;10.236;2023-04-08T00:31:20;101815.81;;;5.60;80.51
49072;BME280;52656;52.610;10.236;2023-04-08T00:33:45;101816.69;;;5.39;81.64
49072;BME280;52656;52.610;10.236;2023-04-08T00:36:11;101814.94;;;5.56;80.93
49072;BME280;52656;52.610;10.236;2023-04-08T00:38:36;101813.19;;;5.48;81.23
49072;BME280;52656;52.610;10.236;2023-04-08T00:41:01;101813.19;;;5.63;80.63
49072;BME280;52656;52.610;10.236;2023-04-08T00:43:27;101809.66;;;5.56;81.28
49072;BME280;52656;52.610;10.236;2023-04-08T00:45:52;101808.78;;;5.60;81.25
49072;BME280;52656;52.610;10.236;2023-04-08T00:48:17;101815.78;;;5.69;81.00
49072;BME280;52656;52.610;10.236;2023-04-08T00:50:43;101806.16;;;5.65;81.25
49072;BME280;52656;52.610;10.236;2023-04-08T00:53:08;101815.81;;;5.51;81.38
49072;BME280;52656;52.610;10.236;2023-04-08T00:55:34;101805.28;;;5.63;81.34
49072;BME280;52656;52.610;10.236;2023-04-08T00:58:00;101809.69;;;5.55;81.76
49072;BME280;52656;52.610;10.236;2023-04-08T01:00:27;101812.28;;;5.53;82.00
49072;BME280;52656;52.610;10.236;2023-04-08T01:03:04;101814.03;;;5.62;81.35
49072;BME280;52656;52.610;10.236;2023-04-08T01:08:39;101809.63;;;5.67;81.81
49072;BME280;52656;52.610;10.236;2023-04-08T01:11:09;101812.25;;;5.72;81.69
49072;BME280;52656;52.610;10.236;2023-04-08T01:13:38;101802.66;;;5.68;81.92
49072;BME280;52656;52.610;10.236;2023-04-08T01:16:05;101796.47;;;5.82;80.84
49072;BME280;52656;52.610;10.236;2023-04-08T01:18:34;101802.59;;;5.75;81.11
49072;BME280;52656;52.610;10.236;2023-04-08T01:21:01;101797.34;;;5.78;80.85
49072;BME280;52656;52.610;10.236;2023-04-08T01:23:46;101793.81;;;5.88;81.16
49072;BME280;52656;52.610;10.236;2023-04-08T01:26:20;101780.63;;;5.90;80.57
49072;BME280;52656;52.610;10.236;2023-04-08T01:28:48;101777.16;;;5.91;80.32
49072;BME280;52656;52.610;10.236;2023-04-08T01:31:15;101775.38;;;5.95;80.38
49072;BME280;52656;52.610;10.236;2023-04-08T01:33:42;101785.91;;;5.92;80.69
49072;BME280;52656;52.610;10.236;2023-04-08T01:36:09;101778.91;;;5.92;80.46
49072;BME280;52656;52.610;10.236;2023-04-08T01:38:35;101771.84;;;6.05;79.91
49072;BME280;52656;52.610;10.236;2023-04-08T01:41:02;101785.84;;;6.07;79.94
49072;BME280;52656;52.610;10.236;2023-04-08T01:43:28;101783.22;;;6.07;79.57
49072;BME280;52656;52.610;10.236;2023-04-08T01:45:55;101781.44;;;6.15;79.86
49072;BME280;52656;52.610;10.236;2023-04-08T01:48:22;101777.88;;;6.21;79.74
49072;BME280;52656;52.610;10.236;2023-04-08T01:50:48;101774.31;;;6.29;79.08
49072;BME280;52656;52.610;10.236;2023-04-08T01:53:15;101776.09;;;6.36;78.91
49072;BME280;52656;52.610;10.236;2023-04-08T01:55:44;101780.44;;;6.41;78.84
49072;BME280;52656;52.610;10.236;2023-04-08T01:58:17;101778.72;;;6.26;78.80
49072;BME280;52656;52.610;10.236;2023-04-08T02:00:44;101778.72;;;6.26;78.49
49072;BME280;52656;52.610;10.236;2023-04-08T02:03:11;101777.91;;;6.18;79.12
49072;BME280;52656;52.610;10.236;2023-04-08T02:05:36;101787.50;;;6.22;78.66
49072;BME280;52656;52.610;10.236;2023-04-08T02:08:03;101785.75;;;6.27;78.47
49072;BME280;52656;52.610;10.236;2023-04-08T02:10:28;101791.97;;;6.13;79.52
49072;BME280;52656;52.610;10.236;2023-04-08T02:12:54;101792.78;;;6.17;79.01
49072;BME280;52656;52.610;10.236;2023-04-08T02:15:19;101799.00;;;6.08;79.74
49072;BME280;52656;52.610;10.236;2023-04-08T02:17:46;101799.91;;;6.00;79.40
49072;BME280;52656;52.610;10.236;2023-04-08T02:23:02;101802.53;;;5.97;80.52
49072;BME280;52656;52.610;10.236;2023-04-08T02:25:33;101802.59;;;5.87;80.79
49072;BME280;52656;52.610;10.236;2023-04-08T02:28:02;101799.94;;;5.89;81.37
49072;BME280;52656;52.610;10.236;2023-04-08T02:30:30;101803.44;;;5.88;81.63
49072;BME280;52656;52.610;10.236;2023-04-08T02:32:57;101800.81;;;5.91;81.08
49072;BME280;52656;52.610;10.236;2023-04-08T02:35:22;101802.56;;;5.89;81.86
49072;BME280;52656;52.610;10.236;2023-04-08T02:37:48;101792.97;;;5.77;81.80
49072;BME280;52656;52.610;10.236;2023-04-08T02:40:28;101794.75;;;5.77;82.43
49072;BME280;52656;52.610;10.236;2023-04-08T02:42:54;101801.75;;;5.78;81.92
49072;BME280;52656;52.610;10.236;2023-04-08T02:45:20;101802.59;;;5.87;81.64
49072;BME280;52656;52.610;10.236;2023-04-08T02:47:46;101805.22;;;5.86;82.22
49072;BME280;52656;52.610;10.236;2023-04-08T02:50:11;101800.84;;;5.83;82.21
49072;BME280;52656;52.610;10.236;2023-04-08T02:52:36;101808.75;;;5.82;82.26
49072;BME280;52656;52.610;10.236;2023-04-08T02:55:02;101807.00;;;5.75;82.50
49072;BME280;52656;52.610;10.236;2023-04-08T02:57:30;101807.00;;;5.70;82.76
49072;BME280;52656;52.610;10.236;2023-04-08T02:59:56;101803.50;;;5.70;82.90
49072;BME280;52656;52.610;10.236;2023-04-08T03:02:21;101807.00;;;5.75;82.72
49072;BME280;52656;52.610;10.236;2023-04-08T03:04:46;101817.56;;;5.64;82.87
49072;BME280;52656;52.610;10.236;2023-04-08T03:07:12;101814.94;;;5.59;83.60
49072;BME280;52656;52.610;10.236;2023-04-08T03:09:37;101814.09;;;5.45;84.66
49072;BME280;52656;52.610;10.236;2023-04-08T03:12:02;101804.44;;;5.52;84.58
49072;BME280;52656;52.610;10.236;2023-04-08T03:14:28;101807.94;;;5.42;84.87
49072;BME280;52656;52.610;10.236;2023-04-08T03:16:53;101814.94;;;5.43;85.31
49072;BME280;52656;52.610;10.236;2023-04-08T03:19:18;101811.41;;;5.62;83.73
49072;BME280;52656;52.610;10.236;2023-04-08T03:21:43;101809.66;;;5.56;84.37
49072;BME280;52656;52.610;10.236;2023-04-08T03:24:09;101811.41;;;5.62;83.50
49072;BME280;52656;52.610;10.236;2023-04-08T03:26:34;101820.19;;;5.55;83.75
49072;BME280;52656;52.610;10.236;2023-04-08T03:29:00;101820.19;;;5.64;83.57
49072;BME280;52656;52.610;10.236;2023-04-08T03:31:25;101819.28;;;5.57;83.43
49072;BME280;52656;52.610;10.236;2023-04-08T03:33:51;101820.19;;;5.56;83.95
49072;BME280;52656;52.610;10.236;2023-04-08T03:36:16;101818.44;;;5.52;84.23
49072;BME280;52656;52.610;10.236;2023-04-08T03:38:43;101819.31;;;5.51;84.32
49072;BME280;52656;52.610;10.236;2023-04-08T03:41:08;101824.59;;;5.54;84.40
49072;BME280;52656;52.610;10.236;2023-04-08T03:43:33;101833.34;;;5.47;84.34
49072;BME280;52656;52.610;10.236;2023-04-08T03:45:59;101825.47;;;5.50;84.49
49072;BME280;52656;52.610;10.236;2023-04-08T03:48:24;101833.34;;;5.33;85.06
49072;BME280;52656;52.610;10.236;2023-04-08T03:50:49;101828.94;;;5.40;84.98
49072;BME280;52656;52.610;10.236;2023-04-08T03:53:15;101828.97;;;5.37;84.92
49072;BME280;52656;52.610;10.236;2023-04-08T03:55:40;101829.84;;;5.47;84.62
49072;BME280;52656;52.610;10.236;2023-04-08T03:58:06;101824.56;;;5.57;83.85
49072;BME280;52656;52.610;10.236;2023-04-08T04:00:31;101827.22;;;5.33;84.98
49072;BME280;52656;52.610;10.236;2023-04-08T04:02:56;101833.34;;;5.41;84.32
49072;BME280;52656;52.610;10.236;2023-04-08T04:05:22;101825.44;;;5.58;83.56
49072;BME280;52656;52.610;10.236;2023-04-08T04:07:47;101829.81;;;5.60;83.26
49072;BME280;52656;52.610;10.236;2023-04-08T04:10:12;101834.19;;;5.58;83.10
49072;BME280;52656;52.610;10.236;2023-04-08T04:12:38;101847.34;;;5.57;83.20
49072;BME280;52656;52.610;10.236;2023-04-08T04:15:03;101843.84;;;5.53;83.22
49072;BME280;52656;52.610;10.236;2023-04-08T04:17:29;101842.97;;;5.42;83.86
49072;BME280;52656;52.610;10.236;2023-04-08T04:19:54;101848.25;;;5.42;84.00
49072;BME280;52656;52.610;10.236;2023-04-08T04:22:20;101846.50;;;5.23;85.87
49072;BME280;52656;52.610;10.236;2023-04-08T04:24:46;101854.38;;;5.30;85.29
49072;BME280;52656;52.610;10.236;2023-04-08T04:27:12;101856.13;;;5.07;87.34
49072;BME280;52656;52.610;10.236;2023-04-08T04:29:37;101857.00;;;5.14;86.77
49072;BME280;52656;52.610;10.236;2023-04-08T04:32:03;101842.13;;;5.09;87.50
49072;BME280;52656;52.610;10.236;2023-04-08T04:34:28;101854.38;;;5.24;86.51
49072;BME280;52656;52.610;10.236;2023-04-08T04:36:54;101849.97;;;5.35;85.83
49072;BME280;52656;52.610;10.236;2023-04-08T04:39:19;101856.13;;;5.42;85.30
49072;BME280;52656;52.610;10.236;2023-04-08T04:41:45;101858.75;;;5.44;85.59
49072;BME280;52656;52.610;10.236;2023-04-08T04:44:11;101871.88;;;5.44;85.63
49072;BME280;52656;52.610;10.236;2023-04-08T04:46:36;101875.38;;;5.38;86.00
49072;BME280;52656;52.610;10.236;2023-04-08T04:49:01;101875.38;;;5.30;86.38
49072;BME280;52656;52.610;10.236;2023-04-08T04:51:27;101883.28;;;5.27;86.90
49072;BME280;52656;52.610;10.236;2023-04-08T04:53:55;101881.50;;;5.20;87.32
49072;BME280;52656;52.610;10.236;2023-04-08T04:56:20;101878.91;;;5.23;87.21
49072;BME280;52656;52.610;10.236;2023-04-08T04:58:46;101892.00;;;5.17;88.56
49072;BME280;52656;52.610;10.236;2023-04-08T05:01:11;101877.16;;;5.33;87.16
49072;BME280;52656;52.610;10.236;2023-04-08T05:03:36;101883.28;;;5.24;87.50
49072;BME280;52656;52.610;10.236;2023-04-08T05:06:02;101878.88;;;5.34;87.46
49072;BME280;52656;52.610;10.236;2023-04-08T05:08:27;101875.41;;;5.46;86.39
49072;BME280;52656;52.610;10.236;2023-04-08T05:10:52;101885.91;;;5.38;87.13
49072;BME280;52656;52.610;10.236;2023-04-08T05:13:20;101883.25;;;5.49;86.33
49072;BME280;52656;52.610;10.236;2023-04-08T05:15:45;101888.53;;;5.43;86.76
49072;BME280;52656;52.610;10.236;2023-04-08T05:18:11;101886.75;;;5.45;87.09
49072;BME280;52656;52.610;10.236;2023-04-08T05:20:36;101888.53;;;5.50;86.45
49072;BME280;52656;52.610;10.236;2023-04-08T05:23:02;101887.66;;;5.59;86.08
49072;BME280;52656;52.610;10.236;2023-04-08T05:25:27;101896.41;;;5.59;86.32
49072;BME280;52656;52.610;10.236;2023-04-08T05:27:53;101896.41;;;5.61;86.00
49072;BME280;52656;52.610;10.236;2023-04-08T05:30:19;101898.16;;;5.34;87.69
49072;BME280;52656;52.610;10.236;2023-04-08T05:32:45;101899.03;;;5.59;86.37
49072;BME280;52656;52.610;10.236;2023-04-08T05:35:10;101905.16;;;5.55;86.31
49072;BME280;52656;52.610;10.236;2023-04-08T05:37:35;101908.69;;;5.54;86.60
49072;BME280;52656;52.610;10.236;2023-04-08T05:40:01;101920.94;;;5.65;86.68
49072;BME280;52656;52.610;10.236;2023-04-08T05:42:26;101912.19;;;5.55;86.81
49072;BME280;52656;52.610;10.236;2023-04-08T05:44:52;101920.06;;;5.43;87.72
49072;BME280;52656;52.610;10.236;2023-04-08T05:47:17;101918.28;;;5.54;87.33
49072;BME280;52656;52.610;10.236;2023-04-08T05:49:42;101919.19;;;5.36;87.90
49072;BME280;52656;52.610;10.236;2023-04-08T05:52:07;101921.78;;;5.30;88.85
49072;BME280;52656;52.610;10.236;2023-04-08T05:54:33;101922.69;;;5.38;89.00
49072;BME280;52656;52.610;10.236;2023-04-08T05:56:58;101925.31;;;5.59;87.40
49072;BME280;52656;52.610;10.236;2023-04-08T05:59:23;101913.06;;;5.60;87.44
49072;BME280;52656;52.610;10.236;2023-04-08T06:01:49;101917.44;;;5.50;88.05
49072;BME280;52656;52.610;10.236;2023-04-08T06:04:14;101920.06;;;5.64;87.40
49072;BME280;52656;52.610;10.236;2023-04-08T06:06:41;101920.06;;;5.69;86.86
49072;BME280;52656;52.610;10.236;2023-04-08T06:09:07;101927.06;;;5.73;86.84
49072;BME280;52656;52.610;10.236;2023-04-08T06:11:34;101938.47;;;5.50;88.02
49072;BME280;52656;52.610;10.236;2023-04-08T06:13:59;101934.06;;;5.66;87.60
49072;BME280;52656;52.610;10.236;2023-04-08T06:16:24;101929.69;;;5.70;87.85
49072;BME280;52656;52.610;10.236;2023-04-08T06:18:50;101937.59;;;5.73;87.44
49072;BME280;52656;52.610;10.236;2023-04-08T06:21:16;101937.56;;;5.76;86.87
49072;BME280;52656;52.610;10.236;2023-04-08T06:23:41;101932.28;;;5.85;86.23
49072;BME280;52656;52.610;10.236;2023-04-08T06:26:06;101942.84;;;5.77;86.86
49072;BME280;52656;52.610;10.236;2023-04-08T06:28:32;101951.56;;;5.95;85.73
49072;BME280;52656;52.610;10.236;2023-04-08T06:30:58;101942.81;;;5.76;87.46
49072;BME280;52656;52.610;10.236;2023-04-08T06:33:23;101946.31;;;5.84;86.60
49072;BME280;52656;52.610;10.236;2023-04-08T06:35:49;101948.06;;;5.97;86.05
49072;BME280;52656;52.610;10.236;2023-04-08T06:38:14;101950.72;;;5.83;86.80
49072;BME280;52656;52.610;10.236;2023-04-08T06:40:40;101952.47;;;5.81;87.46
49072;BME280;52656;52.610;10.236;2023-04-08T06:43:05;101958.59;;;5.91;86.89
49072;BME280;52656;52.610;10.236;2023-04-08T06:45:33;101953.31;;;5.89;86.99
49072;BME280;52656;52.610;10.236;2023-04-08T06:47:59;101962.94;;;6.07;86.36
49072;BME280;52656;52.610;10.236;2023-04-08T06:50:24;101962.97;;;6.09;85.65
49072;BME280;52656;52.610;10.236;2023-04-08T06:52:50;101978.72;;;6.23;84.91
49072;BME280;52656;52.610;10.236;2023-04-08T06:55:15;101974.31;;;6.17;85.27
49072;BME280;52656;52.610;10.236;2023-04-08T06:57:41;101971.72;;;6.19;85.40
49072;BME280;52656;52.610;10.236;2023-04-08T07:00:07;101976.06;;;6.24;84.87
49072;BME280;52656;52.610;10.236;2023-04-08T07:02:32;101983.09;;;6.27;84.72
49072;BME280;52656;52.610;10.236;2023-04-08T07:04:58;101976.13;;;6.06;85.22
49072;BME280;52656;52.610;10.236;2023-04-08T07:07:23;101972.59;;;6.18;84.90
49072;BME280;52656;52.610;10.236;2023-04-08T07:09:49;101976.06;;;6.29;83.75
49072;BME280;52656;52.610;10.236;2023-04-08T07:12:15;101974.31;;;6.20;84.16
49072;BME280;52656;52.610;10.236;2023-04-08T07:14:40;101976.94;;;6.22;84.18
49072;BME280;52656;52.610;10.236;2023-04-08T07:17:06;101980.47;;;6.27;83.69
49072;BME280;52656;52.610;10.236;2023-04-08T07:19:31;101980.47;;;6.42;83.12
49072;BME280;52656;52.610;10.236;2023-04-08T07:21:56;101983.09;;;6.28;83.66
49072;BME280;52656;52.610;10.236;2023-04-08T07:24:22;101989.19;;;6.35;83.35
49072;BME280;52656;52.610;10.236;2023-04-08T07:26:47;101985.69;;;6.48;82.91
49072;BME280;52656;52.610;10.236;2023-04-08T07:29:13;101979.47;;;6.71;82.12
49072;BME280;52656;52.610;10.236;2023-04-08T07:31:42;101981.28;;;6.59;82.25
49072;BME280;52656;52.610;10.236;2023-04-08T07:34:07;101990.00;;;6.74;82.00
49072;BME280;52656;52.610;10.236;2023-04-08T07:36:32;101980.34;;;6.73;81.34
49072;BME280;52656;52.610;10.236;2023-04-08T07:38:58;101984.63;;;6.97;79.73
49072;BME280;52656;52.610;10.236;2023-04-08T07:41:23;101988.06;;;7.08;78.54
49072;BME280;52656;52.610;10.236;2023-04-08T07:43:48;101974.69;;;7.40;77.49
49072;BME280;52656;52.610;10.236;2023-04-08T07:46:13;101976.63;;;7.12;78.54
49072;BME280;52656;52.610;10.236;2023-04-08T07:48:39;101981.00;;;7.22;78.15
49072;BME280;52656;52.610;10.236;2023-04-08T07:51:08;101989.06;;;6.92;78.92
49072;BME280;52656;52.610;10.236;2023-04-08T07:53:34;101992.47;;;7.10;78.28
49072;BME280;52656;52.610;10.236;2023-04-08T07:56:00;101995.94;;;7.19;77.97
49072;BME280;52656;52.610;10.236;2023-04-08T07:58:26;101995.19;;;6.89;78.86
49072;BME280;52656;52.610;10.236;2023-04-08T08:00:51;102002.19;;;6.93;78.97
49072;BME280;52656;52.610;10.236;2023-04-08T08:03:17;102011.00;;;6.92;79.37
49072;BME280;52656;52.610;10.236;2023-04-08T08:05:42;102015.41;;;6.88;79.70
49072;BME280;52656;52.610;10.236;2023-04-08T08:08:08;102011.06;;;6.71;81.12
49072;BME280;52656;52.610;10.236;2023-04-08T08:10:36;102019.78;;;6.85;80.07
49072;BME280;52656;52.610;10.236;2023-04-08T08:13:01;102019.00;;;6.68;80.36
49072;BME280;52656;52.610;10.236;2023-04-08T08:15:27;102019.72;;;7.05;79.20
49072;BME280;52656;52.610;10.236;2023-04-08T08:17:52;102025.88;;;6.98;79.64
49072;BME280;52656;52.610;10.236;2023-04-08T08:20:17;102025.75;;;7.25;78.38
49072;BME280;52656;52.610;10.236;2023-04-08T08:22:42;102019.50;;;7.40;76.68
49072;BME280;52656;52.610;10.236;2023-04-08T08:25:09;102019.56;;;7.34;76.56
49072;BME280;52656;52.610;10.236;2023-04-08T08:27:34;102025.59;;;7.53;75.91
49072;BME280;52656;52.610;10.236;2023-04-08T08:30:00;102034.63;;;7.13;77.90
49072;BME280;52656;52.610;10.236;2023-04-08T08:32:26;102037.16;;;7.29;77.96
49072;BME280;52656;52.610;10.236;2023-04-08T08:34:51;102038.22;;;6.91;78.62
49072;BME280;52656;52.610;10.236;2023-04-08T08:37:16;102045.19;;;7.03;78.34
49072;BME280;52656;52.610;10.236;2023-04-08T08:39:42;102041.66;;;7.08;78.54
49072;BME280;52656;52.610;10.236;2023-04-08T08:42:18;102044.28;;;7.11;77.55
49072;BME280;52656;52.610;10.236;2023-04-08T08:44:43;102052.03;;;7.42;76.02
49072;BME280;52656;52.610;10.236;2023-04-08T08:47:08;102042.22;;;7.61;75.66
49072;BME280;52656;52.610;10.236;2023-04-08T08:49:33;102045.59;;;7.83;74.22
49072;BME280;52656;52.610;10.236;2023-04-08T08:51:59;102060.06;;;7.11;77.06
49072;BME280;52656;52.610;10.236;2023-04-08T08:54:24;102069.69;;;7.22;76.47
49072;BME280;52656;52.610;10.236;2023-04-08T08:56:51;102069.69;;;7.28;76.60
49072;BME280;52656;52.610;10.236;2023-04-08T08:59:17;102066.09;;;7.35;76.79
49072;BME280;52656;52.610;10.236;2023-04-08T09:01:42;102060.81;;;7.46;76.29
49072;BME280;52656;52.610;10.236;2023-04-08T09:04:18;102068.53;;;7.73;75.09
49072;BME280;52656;52.610;10.236;2023-04-08T09:06:45;102059.75;;;7.70;74.84
49072;BME280;52656;52.610;10.236;2023-04-08T09:09:11;102064.16;;;7.69;74.83
49072;BME280;52656;52.610;10.236;2023-04-08T09:11:41;102059.00;;;7.51;75.55
49072;BME280;52656;52.610;10.236;2023-04-08T09:14:21;102059.78;;;7.65;74.85
49072;BME280;52656;52.610;10.236;2023-04-08T09:16:47;102071.41;;;7.32;76.05
49072;BME280;52656;52.610;10.236;2023-04-08T09:19:12;102060.63;;;7.67;75.20
49072;BME280;52656;52.610;10.236;2023-04-08T09:21:38;102066.78;;;7.71;74.82
49072;BME280;52656;52.610;10.236;2023-04-08T09:24:05;102060.47;;;7.90;74.01
49072;BME280;52656;52.610;10.236;2023-04-08T09:26:31;102057.88;;;7.87;73.55
49072;BME280;52656;52.610;10.236;2023-04-08T09:31:24;102068.53;;;7.70;75.36
49072;BME280;52656;52.610;10.236;2023-04-08T09:33:53;102065.63;;;8.10;72.83
49072;BME280;52656;52.610;10.236;2023-04-08T09:36:19;102074.59;;;7.84;74.38
49072;BME280;52656;52.610;10.236;2023-04-08T09:38:45;102082.59;;;7.74;75.05
49072;BME280;52656;52.610;10.236;2023-04-08T09:41:17;102091.38;;;7.74;75.02
49072;BME280;52656;52.610;10.236;2023-04-08T09:43:46;102094.97;;;7.64;75.03
49072;BME280;52656;52.610;10.236;2023-04-08T09:46:17;102099.50;;;7.34;76.24
49072;BME280;52656;52.610;10.236;2023-04-08T09:48:55;102099.25;;;7.79;74.32
49072;BME280;52656;52.610;10.236;2023-04-08T09:51:23;102099.16;;;7.96;74.07
49072;BME280;52656;52.610;10.236;2023-04-08T09:53:55;102098.28;;;7.94;73.65
49072;BME280;52656;52.610;10.236;2023-04-08T09:56:26;102102.69;;;7.90;74.51
49072;BME280;52656;52.610;10.236;2023-04-08T09:59:02;102097.38;;;7.95;73.58
49072;BME280;52656;52.610;10.236;2023-04-08T10:01:36;102102.78;;;7.78;74.24
49072;BME280;52656;52.610;10.236;2023-04-08T10:04:04;102103.63;;;7.83;74.04
49072;BME280;52656;52.610;10.236;2023-04-08T10:06:33;102100.97;;;7.84;74.20
49072;BME280;52656;52.610;10.236;2023-04-08T10:09:00;102102.66;;;7.95;74.17
49072;BME280;52656;52.610;10.236;2023-04-08T10:11:27;102108.03;;;7.82;73.83
49072;BME280;52656;52.610;10.236;2023-04-08T10:13:52;102109.06;;;7.57;74.78
49072;BME280;52656;52.610;10.236;2023-04-08T10:18:43;102104.56;;;7.77;74.26
49072;BME280;52656;52.610;10.236;2023-04-08T10:23:54;102106.28;;;7.83;74.26
49072;BME280;52656;52.610;10.236;2023-04-08T10:26:31;102105.31;;;7.90;74.01
49072;BME280;52656;52.610;10.236;2023-04-08T10:31:41;102105.34;;;7.85;74.23
49072;BME280;52656;52.610;10.236;2023-04-08T10:34:16;102094.66;;;8.08;72.95
49072;BME280;52656;52.610;10.236;2023-04-08T10:36:45;102092.88;;;8.10;73.43
49072;BME280;52656;52.610;10.236;2023-04-08T10:39:12;102097.00;;;8.47;71.42
49072;BME280;52656;52.610;10.236;2023-04-08T10:41:42;102106.75;;;8.35;71.99
49072;BME280;52656;52.610;10.236;2023-04-08T10:44:18;102102.63;;;7.98;73.13
49072;BME280;52656;52.610;10.236;2023-04-08T10:46:44;102105.03;;;8.33;71.88
49072;BME280;52656;52.610;10.236;2023-04-08T10:49:11;102104.09;;;8.40;71.98
49072;BME280;52656;52.610;10.236;2023-04-08T10:51:37;102096.97;;;8.48;71.69
49072;BME280;52656;52.610;10.236;2023-04-08T10:54:10;102095.94;;;8.68;70.74
49072;BME280;52656;52.610;10.236;2023-04-08T10:56:43;102098.56;;;8.66;70.52
49072;BME280;52656;52.610;10.236;2023-04-08T10:59:09;102103.00;;;8.62;69.77
49072;BME280;52656;52.610;10.236;2023-04-08T11:01:38;102105.09;;;8.25;72.20
49072;BME280;52656;52.610;10.236;2023-04-08T11:04:15;102112.00;;;8.40;71.46
49072;BME280;52656;52.610;10.236;2023-04-08T11:06:42;102115.59;;;8.33;71.54
49072;BME280;52656;52.610;10.236;2023-04-08T11:09:08;102121.13;;;7.98;72.89
49072;BME280;52656;52.610;10.236;2023-04-08T11:11:34;102116.56;;;8.20;72.67
49072;BME280;52656;52.610;10.236;2023-04-08T11:14:00;102113.13;;;8.07;72.72
49072;BME280;52656;52.610;10.236;2023-04-08T11:16:26;102126.41;;;7.96;73.20
49072;BME280;52656;52.610;10.236;2023-04-08T11:18:53;102118.44;;;8.05;73.41
49072;BME280;52656;52.610;10.236;2023-04-08T11:21:20;102129.13;;;7.82;74.75
49072;BME280;52656;52.610;10.236;2023-04-08T11:23:50;102130.19;;;7.52;75.63
49072;BME280;52656;52.610;10.236;2023-04-08T11:26:17;102130.00;;;7.83;74.57
49072;BME280;52656;52.610;10.236;2023-04-08T11:28:43;102125.66;;;7.76;74.95
49072;BME280;52656;52.610;10.236;2023-04-08T11:31:10;102130.09;;;7.66;75.27
49072;BME280;52656;52.610;10.236;2023-04-08T11:33:36;102120.28;;;7.93;74.79
49072;BME280;52656;52.610;10.236;2023-04-08T11:36:03;102124.66;;;7.97;74.22
49072;BME280;52656;52.610;10.236;2023-04-08T11:38:28;102116.63;;;8.07;73.54
49072;BME280;52656;52.610;10.236;2023-04-08T11:40:57;102118.28;;;8.25;73.55
49072;BME280;52656;52.610;10.236;2023-04-08T11:43:23;102117.53;;;8.09;74.25
49072;BME280;52656;52.610;10.236;2023-04-08T11:45:49;102122.25;;;7.58;75.55
49072;BME280;52656;52.610;10.236;2023-04-08T11:48:15;102130.94;;;7.71;75.28
49072;BME280;52656;52.610;10.236;2023-04-08T11:50:42;102128.16;;;7.94;75.11
49072;BME280;52656;52.610;10.236;2023-04-08T11:53:21;102131.78;;;7.76;76.03
49072;BME280;52656;52.610;10.236;2023-04-08T11:55:49;102129.03;;;7.98;75.40
49072;BME280;52656;52.610;10.236;2023-04-08T11:58:15;102132.41;;;8.18;74.22
49072;BME280;52656;52.610;10.236;2023-04-08T12:00:40;102133.47;;;7.96;74.63
49072;BME280;52656;52.610;10.236;2023-04-08T12:03:07;102132.56;;;8.00;75.05
49072;BME280;52656;52.610;10.236;2023-04-08T12:05:32;102140.34;;;8.12;74.02
49072;BME280;52656;52.610;10.236;2023-04-08T12:07:57;102126.94;;;8.44;73.09
49072;BME280;52656;52.610;10.236;2023-04-08T12:10:23;102127.81;;;8.46;72.84
49072;BME280;52656;52.610;10.236;2023-04-08T12:12:51;102127.56;;;8.72;72.20
49072;BME280;52656;52.610;10.236;2023-04-08T12:15:17;102131.25;;;8.53;72.04
49072;BME280;52656;52.610;10.236;2023-04-08T12:17:42;102138.28;;;8.55;72.12
49072;BME280;52656;52.610;10.236;2023-04-08T12:20:09;102126.78;;;8.64;71.47
49072;BME280;52656;52.610;10.236;2023-04-08T12:22:35;102124.34;;;8.38;72.94
49072;BME280;52656;52.610;10.236;2023-04-08T12:25:00;102132.25;;;8.43;72.54
49072;BME280;52656;52.610;10.236;2023-04-08T12:27:27;102129.50;;;8.53;71.96
49072;BME280;52656;52.610;10.236;2023-04-08T12:29:53;102122.38;;;8.63;71.63
49072;BME280;52656;52.610;10.236;2023-04-08T12:32:19;102119.50;;;8.84;70.71
49072;BME280;52656;52.610;10.236;2023-04-08T12:34:44;102126.59;;;8.82;70.71
49072;BME280;52656;52.610;10.236;2023-04-08T12:37:09;102127.53;;;8.77;70.66
49072;BME280;52656;52.610;10.236;2023-04-08T12:39:35;102120.47;;;8.77;70.79
49072;BME280;52656;52.610;10.236;2023-04-08T12:42:00;102127.81;;;8.46;71.54
49072;BME280;52656;52.610;10.236;2023-04-08T12:44:26;102130.53;;;8.37;73.58
49072;BME280;52656;52.610;10.236;2023-04-08T12:46:51;102121.44;;;8.67;71.60
49072;BME280;52656;52.610;10.236;2023-04-08T12:49:16;102115.09;;;8.85;70.88
49072;BME280;52656;52.610;10.236;2023-04-08T12:51:42;102120.38;;;8.85;70.98
49072;BME280;52656;52.610;10.236;2023-04-08T12:54:07;102115.00;;;8.92;70.82
49072;BME280;52656;52.610;10.236;2023-04-08T12:56:33;102113.63;;;9.35;69.90
49072;BME280;52656;52.610;10.236;2023-04-08T12:58:59;102112.81;;;9.30;69.21
49072;BME280;52656;52.610;10.236;2023-04-08T13:01:25;102117.53;;;9.05;69.63
49072;BME280;52656;52.610;10.236;2023-04-08T13:03:50;102113.56;;;9.41;68.83